sensor_id;sensor_type;location;lat;lon;timestamp;temperature;humidity
13848;DHT22;6994;49.752;6.094;2022-07-11T00:02:22;18.70;99.90
13848;DHT22;6994;49.752;6.094;2022-07-11T00:04:49;18.60;99.90
13848;DHT22;6994;49.752;6.094;2022-07-11T00:07:17;18.40;99.90
13848;DHT22;6994;49.752;6.094;2022-07-11T00:09:45;18.40;99.90
13848;DHT22;6994;49.752;6.094;2022-07-11T00:12:13;18.30;99.90
13848;DHT22;6994;49.752;6.094;2022-07-11T00:14:41;18.20;99.90
13848;DHT22;6994;49.752;6.094;2022-07-11T00:17:09;18.20;99.90
13848;DHT22;6994;49.752;6.094;2022-07-11T00:19:37;18.20;99.90
13848;DHT22;6994;49.752;6.094;2022-07-11T00:22:05;18.10;99.90
13848;DHT22;6994;49.752;6.094;2022-07-11T00:24:33;18.10;99.90
13848;DHT22;6994;49.752;6.094;2022-07-11T00:27:01;18.00;99.90
13848;DHT22;6994;49.752;6.094;2022-07-11T00:29:29;18.00;99.90
13848;DHT22;6994;49.752;6.094;2022-07-11T00:31:57;18.00;99.90
13848;DHT22;6994;49.752;6.094;2022-07-11T00:34:24;17.90;99.90
13848;DHT22;6994;49.752;6.094;2022-07-11T00:36:51;17.90;99.90
13848;DHT22;6994;49.752;6.094;2022-07-11T00:39:18;17.80;99.90
13848;DHT22;6994;49.752;6.094;2022-07-11T00:41:45;17.80;99.90
13848;DHT22;6994;49.752;6.094;2022-07-11T00:44:12;17.90;99.90
13848;DHT22;6994;49.752;6.094;2022-07-11T00:46:39;18.00;99.90
13848;DHT22;6994;49.752;6.094;2022-07-11T00:49:07;17.90;99.90
13848;DHT22;6994;49.752;6.094;2022-07-11T00:51:35;17.80;99.90
13848;DHT22;6994;49.752;6.094;2022-07-11T00:54:03;17.80;99.90
13848;DHT22;6994;49.752;6.094;2022-07-11T00:56:30;17.80;99.90
13848;DHT22;6994;49.752;6.094;2022-07-11T00:58:58;17.80;99.90
13848;DHT22;6994;49.752;6.094;2022-07-11T01:01:26;17.70;99.90
13848;DHT22;6994;49.752;6.094;2022-07-11T01:03:54;17.70;99.90
13848;DHT22;6994;49.752;6.094;2022-07-11T01:06:22;17.60;99.90
13848;DHT22;6994;49.752;6.094;2022-07-11T01:08:50;17.60;99.90
13848;DHT22;6994;49.752;6.094;2022-07-11T01:11:18;17.50;99.90
13848;DHT22;6994;49.752;6.094;2022-07-11T01:13:46;17.50;99.90
13848;DHT22;6994;49.752;6.094;2022-07-11T01:16:14;17.70;99.90
13848;DHT22;6994;49.752;6.094;2022-07-11T01:18:42;17.70;99.90
13848;DHT22;6994;49.752;6.094;2022-07-11T01:21:18;17.80;99.90
13848;DHT22;6994;49.752;6.094;2022-07-11T01:23:45;17.70;99.90
13848;DHT22;6994;49.752;6.094;2022-07-11T01:26:12;17.60;99.90
13848;DHT22;6994;49.752;6.094;2022-07-11T01:28:40;17.50;99.90
13848;DHT22;6994;49.752;6.094;2022-07-11T01:31:08;17.40;99.90
13848;DHT22;6994;49.752;6.094;2022-07-11T01:33:36;17.30;99.90
13848;DHT22;6994;49.752;6.094;2022-07-11T01:36:04;17.20;99.90
13848;DHT22;6994;49.752;6.094;2022-07-11T01:38:31;17.20;99.90
13848;DHT22;6994;49.752;6.094;2022-07-11T01:40:59;16.90;99.90
13848;DHT22;6994;49.752;6.094;2022-07-11T01:43:27;17.00;99.90
13848;DHT22;6994;49.752;6.094;2022-07-11T01:45:55;17.20;99.90
13848;DHT22;6994;49.752;6.094;2022-07-11T01:48:23;17.20;99.90
13848;DHT22;6994;49.752;6.094;2022-07-11T01:50:50;17.40;99.90
13848;DHT22;6994;49.752;6.094;2022-07-11T01:53:17;17.30;99.90
13848;DHT22;6994;49.752;6.094;2022-07-11T01:55:44;17.30;99.90
13848;DHT22;6994;49.752;6.094;2022-07-11T01:58:11;17.20;99.90
13848;DHT22;6994;49.752;6.094;2022-07-11T02:00:39;17.10;99.90
13848;DHT22;6994;49.752;6.094;2022-07-11T02:03:07;17.00;99.90
13848;DHT22;6994;49.752;6.094;2022-07-11T02:05:35;16.80;99.90
13848;DHT22;6994;49.752;6.094;2022-07-11T02:08:03;16.60;99.90
13848;DHT22;6994;49.752;6.094;2022-07-11T02:10:46;16.60;99.90
13848;DHT22;6994;49.752;6.094;2022-07-11T02:13:13;16.40;99.90
13848;DHT22;6994;49.752;6.094;2022-07-11T02:15:40;16.30;99.90
13848;DHT22;6994;49.752;6.094;2022-07-11T02:18:07;16.10;99.90
13848;DHT22;6994;49.752;6.094;2022-07-11T02:20:34;15.90;99.90
13848;DHT22;6994;49.752;6.094;2022-07-11T02:23:01;16.00;99.90
13848;DHT22;6994;49.752;6.094;2022-07-11T02:25:28;15.90;99.90
13848;DHT22;6994;49.752;6.094;2022-07-11T02:27:56;15.70;99.90
13848;DHT22;6994;49.752;6.094;2022-07-11T02:30:24;15.60;99.90
13848;DHT22;6994;49.752;6.094;2022-07-11T02:32:52;15.50;99.90
13848;DHT22;6994;49.752;6.094;2022-07-11T02:35:20;15.40;99.90
13848;DHT22;6994;49.752;6.094;2022-07-11T02:37:48;15.30;99.90
13848;DHT22;6994;49.752;6.094;2022-07-11T02:40:16;15.20;99.90
13848;DHT22;6994;49.752;6.094;2022-07-11T02:42:43;15.20;99.90
13848;DHT22;6994;49.752;6.094;2022-07-11T02:45:10;15.10;99.90
13848;DHT22;6994;49.752;6.094;2022-07-11T02:47:38;15.20;99.90
13848;DHT22;6994;49.752;6.094;2022-07-11T02:50:09;15.20;99.90
13848;DHT22;6994;49.752;6.094;2022-07-11T02:52:32;15.10;99.90
13848;DHT22;6994;49.752;6.094;2022-07-11T02:55:00;15.00;99.90
13848;DHT22;6994;49.752;6.094;2022-07-11T02:57:27;14.90;99.90
13848;DHT22;6994;49.752;6.094;2022-07-11T02:59:54;14.80;99.90
13848;DHT22;6994;49.752;6.094;2022-07-11T03:02:21;14.80;99.90
13848;DHT22;6994;49.752;6.094;2022-07-11T03:04:48;14.70;99.90
13848;DHT22;6994;49.752;6.094;2022-07-11T03:07:16;14.60;99.90
13848;DHT22;6994;49.752;6.094;2022-07-11T03:09:43;14.50;99.90
13848;DHT22;6994;49.752;6.094;2022-07-11T03:12:11;14.50;99.90
13848;DHT22;6994;49.752;6.094;2022-07-11T03:14:39;14.50;99.90
13848;DHT22;6994;49.752;6.094;2022-07-11T03:17:07;14.50;99.90
13848;DHT22;6994;49.752;6.094;2022-07-11T03:19:34;14.50;99.90
13848;DHT22;6994;49.752;6.094;2022-07-11T03:22:01;14.40;99.90
13848;DHT22;6994;49.752;6.094;2022-07-11T03:24:28;14.40;99.90
13848;DHT22;6994;49.752;6.094;2022-07-11T03:26:55;14.30;99.90
13848;DHT22;6994;49.752;6.094;2022-07-11T03:29:23;14.30;99.90
13848;DHT22;6994;49.752;6.094;2022-07-11T03:31:50;14.30;99.90
13848;DHT22;6994;49.752;6.094;2022-07-11T03:34:17;14.30;99.90
13848;DHT22;6994;49.752;6.094;2022-07-11T03:36:44;14.30;99.90
13848;DHT22;6994;49.752;6.094;2022-07-11T03:39:12;14.30;99.90
13848;DHT22;6994;49.752;6.094;2022-07-11T03:41:39;14.20;99.90
13848;DHT22;6994;49.752;6.094;2022-07-11T03:44:06;14.20;99.90
13848;DHT22;6994;49.752;6.094;2022-07-11T03:46:33;14.20;99.90
13848;DHT22;6994;49.752;6.094;2022-07-11T03:49:01;14.20;99.90
13848;DHT22;6994;49.752;6.094;2022-07-11T03:51:28;14.20;99.90
13848;DHT22;6994;49.752;6.094;2022-07-11T03:53:55;14.20;99.90
13848;DHT22;6994;49.752;6.094;2022-07-11T03:56:23;14.10;99.90
13848;DHT22;6994;49.752;6.094;2022-07-11T03:58:50;14.10;99.90
13848;DHT22;6994;49.752;6.094;2022-07-11T04:01:17;14.10;99.90
13848;DHT22;6994;49.752;6.094;2022-07-11T04:03:44;14.00;99.90
13848;DHT22;6994;49.752;6.094;2022-07-11T04:06:12;14.00;99.90
13848;DHT22;6994;49.752;6.094;2022-07-11T04:08:39;14.00;99.90
13848;DHT22;6994;49.752;6.094;2022-07-11T04:11:06;14.10;99.90
13848;DHT22;6994;49.752;6.094;2022-07-11T04:13:33;14.00;99.90
13848;DHT22;6994;49.752;6.094;2022-07-11T04:16:00;14.10;99.90
13848;DHT22;6994;49.752;6.094;2022-07-11T04:18:28;14.00;99.90
13848;DHT22;6994;49.752;6.094;2022-07-11T04:20:55;14.10;99.90
13848;DHT22;6994;49.752;6.094;2022-07-11T04:23:22;14.00;99.90
13848;DHT22;6994;49.752;6.094;2022-07-11T04:25:49;14.20;99.90
13848;DHT22;6994;49.752;6.094;2022-07-11T04:28:16;14.30;99.90
13848;DHT22;6994;49.752;6.094;2022-07-11T04:30:44;14.50;99.90
13848;DHT22;6994;49.752;6.094;2022-07-11T04:33:11;14.50;99.90
13848;DHT22;6994;49.752;6.094;2022-07-11T04:35:38;14.70;99.90
13848;DHT22;6994;49.752;6.094;2022-07-11T04:38:05;14.70;99.90
13848;DHT22;6994;49.752;6.094;2022-07-11T04:40:33;14.60;99.90
13848;DHT22;6994;49.752;6.094;2022-07-11T04:43:01;14.50;99.90
13848;DHT22;6994;49.752;6.094;2022-07-11T04:45:29;14.50;99.90
13848;DHT22;6994;49.752;6.094;2022-07-11T04:47:57;14.50;99.90
13848;DHT22;6994;49.752;6.094;2022-07-11T04:50:25;14.50;99.90
13848;DHT22;6994;49.752;6.094;2022-07-11T04:52:52;14.50;99.90
13848;DHT22;6994;49.752;6.094;2022-07-11T04:55:19;14.50;99.90
13848;DHT22;6994;49.752;6.094;2022-07-11T04:57:47;14.50;99.90
13848;DHT22;6994;49.752;6.094;2022-07-11T05:00:14;14.50;99.90
13848;DHT22;6994;49.752;6.094;2022-07-11T05:02:41;14.60;99.90
13848;DHT22;6994;49.752;6.094;2022-07-11T05:05:08;14.50;99.90
13848;DHT22;6994;49.752;6.094;2022-07-11T05:07:35;14.60;99.90
13848;DHT22;6994;49.752;6.094;2022-07-11T05:10:03;14.60;99.90
13848;DHT22;6994;49.752;6.094;2022-07-11T05:12:30;14.70;99.90
13848;DHT22;6994;49.752;6.094;2022-07-11T05:14:57;14.70;99.90
13848;DHT22;6994;49.752;6.094;2022-07-11T05:17:25;14.70;99.90
13848;DHT22;6994;49.752;6.094;2022-07-11T05:19:52;14.80;99.90
13848;DHT22;6994;49.752;6.094;2022-07-11T05:22:20;14.90;99.90
13848;DHT22;6994;49.752;6.094;2022-07-11T05:24:48;14.90;99.90
13848;DHT22;6994;49.752;6.094;2022-07-11T05:27:15;14.90;99.90
13848;DHT22;6994;49.752;6.094;2022-07-11T05:29:43;15.00;99.90
13848;DHT22;6994;49.752;6.094;2022-07-11T05:32:10;15.10;99.90
13848;DHT22;6994;49.752;6.094;2022-07-11T05:34:37;15.10;99.90
13848;DHT22;6994;49.752;6.094;2022-07-11T05:37:04;15.20;99.90
13848;DHT22;6994;49.752;6.094;2022-07-11T05:39:32;15.50;99.90
13848;DHT22;6994;49.752;6.094;2022-07-11T05:41:59;15.60;99.90
13848;DHT22;6994;49.752;6.094;2022-07-11T05:44:26;15.60;99.90
13848;DHT22;6994;49.752;6.094;2022-07-11T05:46:57;15.70;99.90
13848;DHT22;6994;49.752;6.094;2022-07-11T05:49:20;16.00;99.90
13848;DHT22;6994;49.752;6.094;2022-07-11T05:51:48;16.10;99.90
13848;DHT22;6994;49.752;6.094;2022-07-11T05:54:15;16.10;99.90
13848;DHT22;6994;49.752;6.094;2022-07-11T05:56:42;16.10;99.90
13848;DHT22;6994;49.752;6.094;2022-07-11T05:59:09;16.40;99.90
13848;DHT22;6994;49.752;6.094;2022-07-11T06:01:36;16.50;99.90
13848;DHT22;6994;49.752;6.094;2022-07-11T06:04:04;16.50;99.90
13848;DHT22;6994;49.752;6.094;2022-07-11T06:06:31;16.60;99.90
13848;DHT22;6994;49.752;6.094;2022-07-11T06:08:58;16.60;99.90
13848;DHT22;6994;49.752;6.094;2022-07-11T06:11:25;16.70;99.90
13848;DHT22;6994;49.752;6.094;2022-07-11T06:13:52;16.80;99.90
13848;DHT22;6994;49.752;6.094;2022-07-11T06:16:20;16.80;99.90
13848;DHT22;6994;49.752;6.094;2022-07-11T06:18:47;16.90;99.90
13848;DHT22;6994;49.752;6.094;2022-07-11T06:21:14;16.90;99.90
13848;DHT22;6994;49.752;6.094;2022-07-11T06:23:41;17.00;99.90
13848;DHT22;6994;49.752;6.094;2022-07-11T06:26:08;17.00;99.90
13848;DHT22;6994;49.752;6.094;2022-07-11T06:28:36;17.10;99.90
13848;DHT22;6994;49.752;6.094;2022-07-11T06:31:03;17.20;99.90
13848;DHT22;6994;49.752;6.094;2022-07-11T06:33:30;17.30;99.90
13848;DHT22;6994;49.752;6.094;2022-07-11T06:35:58;17.50;99.90
13848;DHT22;6994;49.752;6.094;2022-07-11T06:38:26;17.70;99.90
13848;DHT22;6994;49.752;6.094;2022-07-11T06:40:54;17.80;99.90
13848;DHT22;6994;49.752;6.094;2022-07-11T06:43:21;17.80;99.90
13848;DHT22;6994;49.752;6.094;2022-07-11T06:45:48;17.90;99.90
13848;DHT22;6994;49.752;6.094;2022-07-11T06:48:16;18.00;99.90
13848;DHT22;6994;49.752;6.094;2022-07-11T06:50:43;18.10;99.90
13848;DHT22;6994;49.752;6.094;2022-07-11T06:53:10;18.10;99.90
13848;DHT22;6994;49.752;6.094;2022-07-11T06:55:37;18.20;99.90
13848;DHT22;6994;49.752;6.094;2022-07-11T06:58:04;18.30;99.90
13848;DHT22;6994;49.752;6.094;2022-07-11T07:00:32;18.60;99.90
13848;DHT22;6994;49.752;6.094;2022-07-11T07:02:59;18.70;99.90
13848;DHT22;6994;49.752;6.094;2022-07-11T07:05:27;18.90;99.90
13848;DHT22;6994;49.752;6.094;2022-07-11T07:07:55;19.00;99.90
13848;DHT22;6994;49.752;6.094;2022-07-11T07:10:22;18.90;99.90
13848;DHT22;6994;49.752;6.094;2022-07-11T07:12:49;19.40;99.90
13848;DHT22;6994;49.752;6.094;2022-07-11T07:15:17;19.70;99.90
13848;DHT22;6994;49.752;6.094;2022-07-11T07:17:45;19.90;99.90
13848;DHT22;6994;49.752;6.094;2022-07-11T07:20:12;19.80;99.90
13848;DHT22;6994;49.752;6.094;2022-07-11T07:22:39;19.90;99.90
13848;DHT22;6994;49.752;6.094;2022-07-11T07:25:07;20.00;99.90
13848;DHT22;6994;49.752;6.094;2022-07-11T07:27:34;20.00;99.90
13848;DHT22;6994;49.752;6.094;2022-07-11T07:30:01;20.00;99.90
13848;DHT22;6994;49.752;6.094;2022-07-11T07:32:29;20.00;99.90
13848;DHT22;6994;49.752;6.094;2022-07-11T07:34:56;20.00;99.90
13848;DHT22;6994;49.752;6.094;2022-07-11T07:37:23;20.20;99.90
13848;DHT22;6994;49.752;6.094;2022-07-11T07:39:50;20.30;99.90
13848;DHT22;6994;49.752;6.094;2022-07-11T07:42:17;20.40;99.90
13848;DHT22;6994;49.752;6.094;2022-07-11T07:44:45;20.40;99.90
13848;DHT22;6994;49.752;6.094;2022-07-11T07:47:12;20.50;99.90
13848;DHT22;6994;49.752;6.094;2022-07-11T07:49:39;20.60;99.90
13848;DHT22;6994;49.752;6.094;2022-07-11T07:52:06;20.60;99.90
13848;DHT22;6994;49.752;6.094;2022-07-11T07:54:33;20.70;99.90
13848;DHT22;6994;49.752;6.094;2022-07-11T07:57:01;20.80;99.90
13848;DHT22;6994;49.752;6.094;2022-07-11T07:59:28;21.00;99.90
13848;DHT22;6994;49.752;6.094;2022-07-11T08:01:55;21.10;99.90
13848;DHT22;6994;49.752;6.094;2022-07-11T08:04:22;21.20;99.90
13848;DHT22;6994;49.752;6.094;2022-07-11T08:06:49;21.20;99.90
13848;DHT22;6994;49.752;6.094;2022-07-11T08:09:17;21.20;99.90
13848;DHT22;6994;49.752;6.094;2022-07-11T08:11:44;21.20;99.90
13848;DHT22;6994;49.752;6.094;2022-07-11T08:14:11;21.30;99.90
13848;DHT22;6994;49.752;6.094;2022-07-11T08:16:38;21.40;99.90
13848;DHT22;6994;49.752;6.094;2022-07-11T08:19:05;21.60;99.90
13848;DHT22;6994;49.752;6.094;2022-07-11T08:21:33;21.80;99.90
13848;DHT22;6994;49.752;6.094;2022-07-11T08:24:00;21.90;99.90
13848;DHT22;6994;49.752;6.094;2022-07-11T08:26:27;22.40;99.90
13848;DHT22;6994;49.752;6.094;2022-07-11T08:28:54;22.50;99.90
13848;DHT22;6994;49.752;6.094;2022-07-11T08:31:22;22.80;99.90
13848;DHT22;6994;49.752;6.094;2022-07-11T08:33:49;22.90;99.90
13848;DHT22;6994;49.752;6.094;2022-07-11T08:36:16;23.30;99.90
13848;DHT22;6994;49.752;6.094;2022-07-11T08:38:43;23.50;99.90
13848;DHT22;6994;49.752;6.094;2022-07-11T08:41:11;23.60;99.90
13848;DHT22;6994;49.752;6.094;2022-07-11T08:43:38;23.90;99.90
13848;DHT22;6994;49.752;6.094;2022-07-11T08:46:06;24.30;99.90
13848;DHT22;6994;49.752;6.094;2022-07-11T08:48:33;24.40;99.90
13848;DHT22;6994;49.752;6.094;2022-07-11T08:51:01;24.40;99.90
13848;DHT22;6994;49.752;6.094;2022-07-11T08:53:28;24.60;99.90
13848;DHT22;6994;49.752;6.094;2022-07-11T08:55:55;24.80;99.90
13848;DHT22;6994;49.752;6.094;2022-07-11T08:58:22;25.30;99.90
13848;DHT22;6994;49.752;6.094;2022-07-11T09:00:49;25.40;99.90
13848;DHT22;6994;49.752;6.094;2022-07-11T09:03:17;25.40;99.90
13848;DHT22;6994;49.752;6.094;2022-07-11T09:05:44;25.40;99.90
13848;DHT22;6994;49.752;6.094;2022-07-11T09:08:11;25.70;98.90
13848;DHT22;6994;49.752;6.094;2022-07-11T09:10:39;25.60;98.70
13848;DHT22;6994;49.752;6.094;2022-07-11T09:13:09;25.40;98.60
13848;DHT22;6994;49.752;6.094;2022-07-11T09:15:39;25.40;98.60
13848;DHT22;6994;49.752;6.094;2022-07-11T09:20:56;25.20;98.90
13848;DHT22;6994;49.752;6.094;2022-07-11T09:23:41;25.00;99.00
13848;DHT22;6994;49.752;6.094;2022-07-11T09:26:28;24.90;99.10
13848;DHT22;6994;49.752;6.094;2022-07-11T09:29:03;24.90;99.40
13848;DHT22;6994;49.752;6.094;2022-07-11T09:31:29;24.80;99.30
13848;DHT22;6994;49.752;6.094;2022-07-11T09:36:38;25.00;98.50
13848;DHT22;6994;49.752;6.094;2022-07-11T09:39:05;25.00;98.80
13848;DHT22;6994;49.752;6.094;2022-07-11T09:41:35;25.00;99.00
13848;DHT22;6994;49.752;6.094;2022-07-11T09:46:35;25.10;98.30
13848;DHT22;6994;49.752;6.094;2022-07-11T09:49:03;25.20;98.60
13848;DHT22;6994;49.752;6.094;2022-07-11T09:51:33;25.20;98.50
13848;DHT22;6994;49.752;6.094;2022-07-11T09:54:01;25.20;98.50
13848;DHT22;6994;49.752;6.094;2022-07-11T09:56:34;25.30;99.10
13848;DHT22;6994;49.752;6.094;2022-07-11T09:59:01;25.40;98.80
13848;DHT22;6994;49.752;6.094;2022-07-11T10:01:27;25.50;98.10
13848;DHT22;6994;49.752;6.094;2022-07-11T10:03:55;25.50;97.80
13848;DHT22;6994;49.752;6.094;2022-07-11T10:06:22;25.90;97.60
13848;DHT22;6994;49.752;6.094;2022-07-11T10:08:52;26.00;97.50
13848;DHT22;6994;49.752;6.094;2022-07-11T10:11:19;26.40;95.80
13848;DHT22;6994;49.752;6.094;2022-07-11T10:13:46;26.30;96.20
13848;DHT22;6994;49.752;6.094;2022-07-11T10:16:43;26.20;96.60
13848;DHT22;6994;49.752;6.094;2022-07-11T10:24:42;26.50;96.20
13848;DHT22;6994;49.752;6.094;2022-07-11T10:27:35;26.50;95.60
13848;DHT22;6994;49.752;6.094;2022-07-11T10:29:52;26.50;96.50
13848;DHT22;6994;49.752;6.094;2022-07-11T10:32:19;26.50;95.70
13848;DHT22;6994;49.752;6.094;2022-07-11T10:35:10;26.80;94.20
13848;DHT22;6994;49.752;6.094;2022-07-11T10:37:50;26.50;94.80
13848;DHT22;6994;49.752;6.094;2022-07-11T10:40:18;26.20;95.70
13848;DHT22;6994;49.752;6.094;2022-07-11T10:42:43;26.00;95.60
13848;DHT22;6994;49.752;6.094;2022-07-11T10:45:11;25.90;95.90
13848;DHT22;6994;49.752;6.094;2022-07-11T10:47:43;25.60;95.70
13848;DHT22;6994;49.752;6.094;2022-07-11T10:52:40;25.50;96.40
13848;DHT22;6994;49.752;6.094;2022-07-11T10:55:16;25.50;96.00
13848;DHT22;6994;49.752;6.094;2022-07-11T10:57:44;25.40;95.80
13848;DHT22;6994;49.752;6.094;2022-07-11T11:00:11;25.70;95.90
13848;DHT22;6994;49.752;6.094;2022-07-11T11:05:39;26.20;95.80
13848;DHT22;6994;49.752;6.094;2022-07-11T11:13:28;26.50;94.40
13848;DHT22;6994;49.752;6.094;2022-07-11T11:15:56;26.40;94.80
13848;DHT22;6994;49.752;6.094;2022-07-11T11:26:13;26.50;95.50
13848;DHT22;6994;49.752;6.094;2022-07-11T11:29:03;26.80;94.90
13848;DHT22;6994;49.752;6.094;2022-07-11T11:31:06;26.90;94.00
13848;DHT22;6994;49.752;6.094;2022-07-11T11:33:34;27.20;94.70
13848;DHT22;6994;49.752;6.094;2022-07-11T11:36:05;28.70;92.40
13848;DHT22;6994;49.752;6.094;2022-07-11T11:38:35;28.70;92.40
13848;DHT22;6994;49.752;6.094;2022-07-11T11:41:01;29.00;91.40
13848;DHT22;6994;49.752;6.094;2022-07-11T11:43:29;28.80;90.50
13848;DHT22;6994;49.752;6.094;2022-07-11T11:45:56;28.30;91.00
13848;DHT22;6994;49.752;6.094;2022-07-11T11:48:39;27.90;91.20
13848;DHT22;6994;49.752;6.094;2022-07-11T11:51:03;28.30;91.80
13848;DHT22;6994;49.752;6.094;2022-07-11T11:53:35;29.00;92.00
13848;DHT22;6994;49.752;6.094;2022-07-11T11:56:25;32.00;83.90
13848;DHT22;6994;49.752;6.094;2022-07-11T11:58:51;32.00;83.80
13848;DHT22;6994;49.752;6.094;2022-07-11T12:01:26;32.80;83.30
13848;DHT22;6994;49.752;6.094;2022-07-11T12:03:52;33.70;81.70
13848;DHT22;6994;49.752;6.094;2022-07-11T12:06:21;35.60;75.00
13848;DHT22;6994;49.752;6.094;2022-07-11T12:08:46;36.20;71.00
13848;DHT22;6994;49.752;6.094;2022-07-11T12:11:13;36.20;66.90
13848;DHT22;6994;49.752;6.094;2022-07-11T12:13:40;35.70;65.40
13848;DHT22;6994;49.752;6.094;2022-07-11T12:16:14;35.50;68.30
13848;DHT22;6994;49.752;6.094;2022-07-11T12:19:02;35.50;68.20
13848;DHT22;6994;49.752;6.094;2022-07-11T12:21:32;35.80;64.50
13848;DHT22;6994;49.752;6.094;2022-07-11T12:24:03;36.20;65.90
13848;DHT22;6994;49.752;6.094;2022-07-11T12:26:33;36.60;62.90
13848;DHT22;6994;49.752;6.094;2022-07-11T12:29:12;36.20;62.30
13848;DHT22;6994;49.752;6.094;2022-07-11T12:34:11;34.60;63.40
13848;DHT22;6994;49.752;6.094;2022-07-11T12:36:38;34.30;64.80
13848;DHT22;6994;49.752;6.094;2022-07-11T12:39:06;34.20;66.20
13848;DHT22;6994;49.752;6.094;2022-07-11T12:41:34;35.00;64.90
13848;DHT22;6994;49.752;6.094;2022-07-11T12:44:01;35.00;64.80
13848;DHT22;6994;49.752;6.094;2022-07-11T12:46:46;35.10;64.30
13848;DHT22;6994;49.752;6.094;2022-07-11T12:49:14;34.80;64.10
13848;DHT22;6994;49.752;6.094;2022-07-11T12:51:42;34.30;64.80
13848;DHT22;6994;49.752;6.094;2022-07-11T12:54:14;33.80;65.00
13848;DHT22;6994;49.752;6.094;2022-07-11T12:56:51;33.80;66.60
13848;DHT22;6994;49.752;6.094;2022-07-11T12:59:17;34.30;65.70
13848;DHT22;6994;49.752;6.094;2022-07-11T13:01:35;34.90;63.60
13848;DHT22;6994;49.752;6.094;2022-07-11T13:04:03;35.20;63.80
13848;DHT22;6994;49.752;6.094;2022-07-11T13:06:31;35.40;62.40
13848;DHT22;6994;49.752;6.094;2022-07-11T13:09:16;35.50;62.40
13848;DHT22;6994;49.752;6.094;2022-07-11T13:11:43;36.10;63.00
13848;DHT22;6994;49.752;6.094;2022-07-11T13:14:10;36.70;60.90
13848;DHT22;6994;49.752;6.094;2022-07-11T13:16:56;37.80;56.90
13848;DHT22;6994;49.752;6.094;2022-07-11T13:19:23;36.90;57.20
13848;DHT22;6994;49.752;6.094;2022-07-11T13:21:50;36.00;58.30
13848;DHT22;6994;49.752;6.094;2022-07-11T13:24:17;35.80;59.40
13848;DHT22;6994;49.752;6.094;2022-07-11T13:26:45;36.40;60.00
13848;DHT22;6994;49.752;6.094;2022-07-11T13:29:12;36.30;58.20
13848;DHT22;6994;49.752;6.094;2022-07-11T13:31:40;35.60;59.30
13848;DHT22;6994;49.752;6.094;2022-07-11T13:34:08;35.30;60.40
13848;DHT22;6994;49.752;6.094;2022-07-11T13:36:36;35.30;60.40
13848;DHT22;6994;49.752;6.094;2022-07-11T13:39:03;35.70;60.30
13848;DHT22;6994;49.752;6.094;2022-07-11T13:41:30;36.00;59.60
13848;DHT22;6994;49.752;6.094;2022-07-11T13:43:57;37.30;56.60
13848;DHT22;6994;49.752;6.094;2022-07-11T13:46:24;37.70;56.90
13848;DHT22;6994;49.752;6.094;2022-07-11T13:48:52;37.90;54.70
13848;DHT22;6994;49.752;6.094;2022-07-11T13:51:19;37.60;54.40
13848;DHT22;6994;49.752;6.094;2022-07-11T13:53:46;38.20;54.00
13848;DHT22;6994;49.752;6.094;2022-07-11T13:56:13;37.70;53.80
13848;DHT22;6994;49.752;6.094;2022-07-11T13:58:41;37.30;54.60
13848;DHT22;6994;49.752;6.094;2022-07-11T14:01:08;36.60;55.60
13848;DHT22;6994;49.752;6.094;2022-07-11T14:03:36;34.20;58.70
13848;DHT22;6994;49.752;6.094;2022-07-11T14:06:04;33.20;60.80
13848;DHT22;6994;49.752;6.094;2022-07-11T14:08:32;32.50;61.80
13848;DHT22;6994;49.752;6.094;2022-07-11T14:11:00;32.20;64.70
13848;DHT22;6994;49.752;6.094;2022-07-11T14:13:28;32.20;62.90
13848;DHT22;6994;49.752;6.094;2022-07-11T14:15:55;32.20;62.90
13848;DHT22;6994;49.752;6.094;2022-07-11T14:18:22;31.80;63.50
13848;DHT22;6994;49.752;6.094;2022-07-11T14:20:49;31.20;64.80
13848;DHT22;6994;49.752;6.094;2022-07-11T14:23:16;30.60;67.10
13848;DHT22;6994;49.752;6.094;2022-07-11T14:25:44;30.00;67.70
13848;DHT22;6994;49.752;6.094;2022-07-11T14:28:11;29.60;68.70
13848;DHT22;6994;49.752;6.094;2022-07-11T14:30:38;29.60;69.90
13848;DHT22;6994;49.752;6.094;2022-07-11T14:33:05;29.80;69.70
13848;DHT22;6994;49.752;6.094;2022-07-11T14:35:32;29.90;69.40
13848;DHT22;6994;49.752;6.094;2022-07-11T14:38:00;29.40;70.50
13848;DHT22;6994;49.752;6.094;2022-07-11T14:40:29;29.00;71.00
13848;DHT22;6994;49.752;6.094;2022-07-11T14:42:56;29.00;71.00
13848;DHT22;6994;49.752;6.094;2022-07-11T14:45:23;28.70;72.20
13848;DHT22;6994;49.752;6.094;2022-07-11T14:47:50;28.50;74.30
13848;DHT22;6994;49.752;6.094;2022-07-11T14:50:17;28.40;74.30
13848;DHT22;6994;49.752;6.094;2022-07-11T14:52:44;28.90;74.20
13848;DHT22;6994;49.752;6.094;2022-07-11T14:55:12;29.70;73.20
13848;DHT22;6994;49.752;6.094;2022-07-11T14:57:39;30.20;71.00
13848;DHT22;6994;49.752;6.094;2022-07-11T15:00:06;30.60;68.00
13848;DHT22;6994;49.752;6.094;2022-07-11T15:02:33;30.20;68.20
13848;DHT22;6994;49.752;6.094;2022-07-11T15:05:19;29.80;70.20
13848;DHT22;6994;49.752;6.094;2022-07-11T15:07:46;29.50;71.20
13848;DHT22;6994;49.752;6.094;2022-07-11T15:10:31;29.40;70.60
13848;DHT22;6994;49.752;6.094;2022-07-11T15:13:16;29.40;70.50
13848;DHT22;6994;49.752;6.094;2022-07-11T15:15:44;29.20;71.50
13848;DHT22;6994;49.752;6.094;2022-07-11T15:18:11;29.00;71.90
13848;DHT22;6994;49.752;6.094;2022-07-11T15:20:38;28.70;72.30
13848;DHT22;6994;49.752;6.094;2022-07-11T15:23:05;29.00;73.50
13848;DHT22;6994;49.752;6.094;2022-07-11T15:25:32;29.60;70.50
13848;DHT22;6994;49.752;6.094;2022-07-11T15:28:00;29.90;70.10
13848;DHT22;6994;49.752;6.094;2022-07-11T15:30:27;30.20;68.90
13848;DHT22;6994;49.752;6.094;2022-07-11T15:32:55;30.80;66.60
13848;DHT22;6994;49.752;6.094;2022-07-11T15:35:23;30.60;68.30
13848;DHT22;6994;49.752;6.094;2022-07-11T15:37:51;30.60;69.30
13848;DHT22;6994;49.752;6.094;2022-07-11T15:40:18;30.60;69.40
13848;DHT22;6994;49.752;6.094;2022-07-11T15:42:45;30.20;69.90
13848;DHT22;6994;49.752;6.094;2022-07-11T15:45:12;29.70;70.10
13848;DHT22;6994;49.752;6.094;2022-07-11T15:47:40;29.90;69.40
13848;DHT22;6994;49.752;6.094;2022-07-11T15:50:07;29.80;69.10
13848;DHT22;6994;49.752;6.094;2022-07-11T15:52:34;29.70;69.80
13848;DHT22;6994;49.752;6.094;2022-07-11T15:55:01;29.70;71.20
13848;DHT22;6994;49.752;6.094;2022-07-11T15:57:28;29.90;69.00
13848;DHT22;6994;49.752;6.094;2022-07-11T15:59:56;30.00;69.90
13848;DHT22;6994;49.752;6.094;2022-07-11T16:02:24;30.10;68.00
13848;DHT22;6994;49.752;6.094;2022-07-11T16:04:52;30.10;68.80
13848;DHT22;6994;49.752;6.094;2022-07-11T16:07:19;30.00;69.40
13848;DHT22;6994;49.752;6.094;2022-07-11T16:09:47;29.90;69.30
13848;DHT22;6994;49.752;6.094;2022-07-11T16:12:15;29.70;69.10
13848;DHT22;6994;49.752;6.094;2022-07-11T16:14:43;29.70;69.00
13848;DHT22;6994;49.752;6.094;2022-07-11T16:17:10;29.50;69.90
13848;DHT22;6994;49.752;6.094;2022-07-11T16:19:37;29.40;69.30
13848;DHT22;6994;49.752;6.094;2022-07-11T16:22:04;29.50;69.10
13848;DHT22;6994;49.752;6.094;2022-07-11T16:24:31;29.50;68.90
13848;DHT22;6994;49.752;6.094;2022-07-11T16:26:59;29.70;68.30